Time;durP1;ratioP1;P1;durP2;ratioP2;P2;SDS_P1;SDS_P2;PMS_P1;PMS_P2;Temp;Humidity;BMP_temperature;BMP_pressure;BME280_temperature;BME280_humidity;BME280_pressure;Samples;Min_cycle;Max_cycle;Signal;HPM_P1;HPM_P2
2023/02/05 00:02:03;;;;;;;12.80;8.50;;;;;;;2.92;100.00;152114.88;4971130;28;20460;-77
2023/02/05 00:04:30;;;;;;;13.50;7.93;;;;;;;2.94;100.00;152121.31;4967292;28;20481;-78
2023/02/05 00:06:56;;;;;;;12.77;8.37;;;;;;;2.94;100.00;152120.00;4957606;28;20450;-77
2023/02/05 00:09:23;;;;;;;10.80;7.63;;;;;;;2.96;100.00;152126.50;4961839;28;20448;-77
2023/02/05 00:11:50;;;;;;;13.17;7.87;;;;;;;2.96;100.00;152125.19;4966433;28;20558;-77
2023/02/05 00:14:17;;;;;;;10.53;7.90;;;;;;;2.97;100.00;152129.03;4984739;28;20461;-78
2023/02/05 00:16:43;;;;;;;8.90;7.37;;;;;;;2.98;100.00;152131.63;4979988;28;20544;-77
2023/02/05 00:19:11;;;;;;;11.67;8.20;;;;;;;3.00;100.00;152135.47;4972197;28;20437;-88
2023/02/05 00:21:38;;;;;;;11.30;8.50;;;;;;;2.98;100.00;152130.31;4969364;28;20876;-87
2023/02/05 00:24:05;;;;;;;12.70;7.60;;;;;;;2.98;100.00;152130.31;4967229;28;20460;-87
2023/02/05 00:26:32;;;;;;;11.03;8.20;;;;;;;2.99;100.00;152132.91;4994929;28;20504;-88
2023/02/05 00:28:58;;;;;;;14.40;8.00;;;;;;;2.99;100.00;152132.91;4969601;28;20540;-88
2023/02/05 00:31:25;;;;;;;14.20;7.93;;;;;;;2.99;100.00;152132.91;4952261;28;20818;-88
2023/02/05 00:33:52;;;;;;;8.97;7.10;;;;;;;2.98;100.00;152131.63;4958208;28;20545;-88
2023/02/05 00:36:21;;;;;;;12.90;8.60;;;;;;;2.99;100.00;152132.91;4989974;28;20457;-88
2023/02/05 00:38:48;;;;;;;11.67;8.73;;;;;;;2.97;100.00;152127.75;4970478;28;20445;-87
2023/02/05 00:41:16;;;;;;;11.53;8.90;;;;;;;2.99;100.00;152132.91;4985149;28;20513;-87
2023/02/05 00:43:43;;;;;;;12.27;9.40;;;;;;;2.98;100.00;152130.31;4955097;28;20442;-88
2023/02/05 00:46:11;;;;;;;12.37;8.87;;;;;;;2.97;100.00;152129.03;4947529;28;20456;-88
2023/02/05 00:48:38;;;;;;;11.27;8.90;;;;;;;2.98;100.00;152130.31;4972553;28;20602;-88
2023/02/05 00:51:05;;;;;;;12.33;9.17;;;;;;;3.01;100.00;152138.06;4978377;28;20543;-88
2023/02/05 00:53:33;;;;;;;15.50;9.30;;;;;;;2.99;100.00;152132.91;4991885;28;20461;-88
2023/02/05 00:56:00;;;;;;;12.47;9.40;;;;;;;2.98;100.00;152130.31;4970066;28;20483;-88
2023/02/05 00:58:27;;;;;;;16.47;10.07;;;;;;;2.98;100.00;152130.31;4948412;28;20461;-88
2023/02/05 01:00:54;;;;;;;12.57;9.57;;;;;;;2.98;100.00;152131.63;4957215;28;20474;-87
2023/02/05 01:03:20;;;;;;;17.63;12.10;;;;;;;2.97;100.00;152129.03;4955048;29;20569;-88
2023/02/05 01:05:47;;;;;;;15.00;10.77;;;;;;;2.95;100.00;152123.91;4970480;28;20558;-87
2023/02/05 01:08:14;;;;;;;12.23;10.10;;;;;;;2.94;100.00;152120.00;4972957;28;20447;-88
2023/02/05 01:10:45;;;;;;;17.10;9.83;;;;;;;2.94;100.00;152120.00;4962024;28;20884;-88
2023/02/05 01:13:11;;;;;;;11.10;9.40;;;;;;;2.93;100.00;152118.75;4969304;28;20539;-88
2023/02/05 01:15:38;;;;;;;12.67;9.80;;;;;;;2.92;100.00;152114.88;4973447;28;21017;-88
2023/02/05 01:18:05;;;;;;;13.37;9.97;;;;;;;2.93;100.00;152117.47;4958348;28;20956;-88
2023/02/05 01:20:32;;;;;;;13.17;10.60;;;;;;;2.93;100.00;152117.47;4975811;28;20481;-88
2023/02/05 01:22:58;;;;;;;11.87;10.60;;;;;;;2.92;100.00;152114.88;4987478;28;20512;-88
2023/02/05 01:25:25;;;;;;;15.23;11.07;;;;;;;2.91;100.00;152112.34;4987978;28;20520;-88
2023/02/05 01:27:53;;;;;;;11.80;10.40;;;;;;;2.87;100.00;152102.00;4956907;28;20468;-88
2023/02/05 01:30:20;;;;;;;13.27;10.73;;;;;;;2.87;100.00;152103.31;4956553;28;20465;-88
2023/02/05 01:32:46;;;;;;;14.73;10.83;;;;;;;2.82;100.00;152089.16;4960099;28;20455;-87
2023/02/05 01:35:13;;;;;;;15.83;11.93;;;;;;;2.82;100.00;152089.16;4945286;28;20567;-88
2023/02/05 01:37:40;;;;;;;14.83;11.53;;;;;;;2.80;100.00;152085.31;4958606;28;20842;-88
2023/02/05 01:40:08;;;;;;;14.67;10.73;;;;;;;2.81;100.00;152086.56;4961743;28;20531;-88
2023/02/05 01:42:35;;;;;;;12.80;10.00;;;;;;;2.79;100.00;152081.44;4952372;28;20855;-88
2023/02/05 01:45:55;;;;;;;13.00;9.23;;;;;;;2.77;100.00;152076.28;4952366;28;20474;-88
2023/02/05 01:48:25;;;;;;;13.23;9.60;;;;;;;2.77;100.00;152076.28;4978296;28;20544;-88
2023/02/05 01:50:55;;;;;;;14.77;9.90;;;;;;;2.76;100.00;152073.72;4949424;28;20457;-88
2023/02/05 01:53:25;;;;;;;13.23;9.20;;;;;;;2.76;100.00;152073.72;4971283;28;21126;-87
2023/02/05 01:55:56;;;;;;;13.13;8.70;;;;;;;2.73;100.00;152067.28;4977381;28;20804;-87
2023/02/05 01:58:23;;;;;;;14.17;10.83;;;;;;;2.71;100.00;152060.84;4956728;28;20883;-88
2023/02/05 02:00:51;;;;;;;11.43;9.13;;;;;;;2.70;100.00;152059.56;4979562;28;20594;-87
2023/02/05 02:03:18;;;;;;;13.87;10.17;;;;;;;2.67;100.00;152051.88;4973103;28;20485;-88
2023/02/05 02:05:45;;;;;;;12.20;9.80;;;;;;;2.62;100.00;152037.72;4965354;28;20551;-88
2023/02/05 02:08:13;;;;;;;11.57;10.30;;;;;;;2.57;100.00;152026.13;4934926;28;20552;-87
2023/02/05 02:10:42;;;;;;;18.03;11.83;;;;;;;2.58;100.00;152027.41;4942190;28;20890;-88
2023/02/05 02:13:09;;;;;;;14.70;10.97;;;;;;;2.57;100.00;152026.13;4946489;28;20461;-88
2023/02/05 02:15:36;;;;;;;18.70;11.97;;;;;;;2.55;100.00;152019.69;4942348;28;20785;-88
2023/02/05 02:20:49;;;;;;;15.83;10.57;;;;;;;2.55;100.00;152020.97;4951562;28;20945;-88
2023/02/05 02:23:22;;;;;;;12.77;10.83;;;;;;;2.51;100.00;152010.72;4957405;28;20453;-87
2023/02/05 02:26:24;;;;;;;13.77;11.67;;;;;;;2.53;100.00;152015.84;4979817;28;20468;-88
2023/02/05 02:28:56;;;;;;;15.97;11.70;;;;;;;2.49;100.00;152005.53;4962551;28;20456;-88
2023/02/05 02:31:28;;;;;;;17.47;11.67;;;;;;;2.45;100.00;151996.56;4966287;28;20938;-88
2023/02/05 02:33:59;;;;;;;15.17;11.60;;;;;;;2.43;100.00;151991.44;4971457;28;20859;-88
2023/02/05 02:36:31;;;;;;;17.53;12.33;;;;;;;2.44;100.00;151993.97;4973341;28;20456;-88
2023/02/05 02:39:02;;;;;;;16.43;12.80;;;;;;;2.48;100.00;152003.00;4957035;28;20477;-88
2023/02/05 02:41:31;;;;;;;15.33;12.43;;;;;;;2.49;100.00;152004.28;4959380;28;20488;-88
2023/02/05 02:44:05;;;;;;;17.40;12.50;;;;;;;2.49;100.00;152004.28;4986639;28;20514;-88
2023/02/05 02:46:38;;;;;;;12.27;11.00;;;;;;;2.51;100.00;152010.72;4986953;28;20448;-88
2023/02/05 02:49:09;;;;;;;13.33;10.50;;;;;;;2.52;100.00;152011.97;4980811;28;20544;-88
2023/02/05 02:51:38;;;;;;;16.83;12.70;;;;;;;2.50;100.00;152006.84;4978496;28;20481;-88
2023/02/05 02:54:08;;;;;;;18.97;11.97;;;;;;;2.52;100.00;152011.97;4975083;28;20469;-88
2023/02/05 02:56:37;;;;;;;13.63;11.13;;;;;;;2.50;100.00;152006.84;4962700;28;20519;-88
2023/02/05 02:59:08;;;;;;;13.20;11.90;;;;;;;2.49;100.00;152004.28;4950804;28;20441;-86
2023/02/05 03:01:38;;;;;;;13.77;12.27;;;;;;;2.46;100.00;151997.84;4963358;28;20480;-88
2023/02/05 03:04:08;;;;;;;13.20;10.90;;;;;;;2.46;100.00;151999.09;4970462;28;20452;-88
2023/02/05 03:06:35;;;;;;;13.07;11.77;;;;;;;2.49;100.00;152005.53;4953659;28;20449;-88
2023/02/05 03:09:07;;;;;;;15.50;11.70;;;;;;;2.46;100.00;151999.09;4955942;28;20448;-88
2023/02/05 03:11:34;;;;;;;15.50;13.40;;;;;;;2.44;100.00;151992.69;4959785;28;21000;-88
2023/02/05 03:14:01;;;;;;;15.00;11.97;;;;;;;2.43;100.00;151990.13;4940545;28;20822;-88
2023/02/05 03:16:33;;;;;;;15.17;11.30;;;;;;;2.43;100.00;151991.44;4949756;28;20549;-88
2023/02/05 03:19:01;;;;;;;17.00;11.10;;;;;;;2.42;100.00;151988.84;4944438;28;20484;-88
2023/02/05 03:21:30;;;;;;;13.13;11.63;;;;;;;2.40;100.00;151983.72;4949629;28;20472;-88
2023/02/05 03:23:57;;;;;;;16.30;11.87;;;;;;;2.40;100.00;151983.72;4952788;28;20456;-88
2023/02/05 03:26:25;;;;;;;15.47;12.47;;;;;;;2.40;100.00;151982.41;4955110;28;20573;-88
2023/02/05 03:28:56;;;;;;;13.40;11.13;;;;;;;2.40;100.00;151983.72;4956690;28;20546;-88
2023/02/05 03:31:28;;;;;;;13.60;11.37;;;;;;;2.40;100.00;151982.41;4972457;28;20446;-88
2023/02/05 03:34:02;;;;;;;16.27;12.53;;;;;;;2.37;100.00;151976.00;4957119;28;20441;-88
2023/02/05 03:36:36;;;;;;;12.23;11.00;;;;;;;2.36;100.00;151972.09;4973095;28;20448;-88
2023/02/05 03:39:15;;;;;;;15.17;11.40;;;;;;;2.39;100.00;151979.81;4960926;28;20494;-88
2023/02/05 03:41:55;;;;;;;13.93;10.87;;;;;;;2.39;100.00;151979.81;4940115;28;20987;-88
2023/02/05 03:44:46;;;;;;;13.33;11.93;;;;;;;2.37;100.00;151976.00;4955612;28;20484;-88
2023/02/05 03:47:22;;;;;;;12.70;10.90;;;;;;;2.36;100.00;151973.41;4942998;28;20563;-88
2023/02/05 03:49:53;;;;;;;14.80;11.47;;;;;;;2.34;100.00;151966.97;4944880;29;20462;-88
2023/02/05 03:52:24;;;;;;;16.30;11.57;;;;;;;2.33;100.00;151965.66;4954742;28;20543;-88
2023/02/05 03:54:58;;;;;;;13.87;10.60;;;;;;;2.30;100.00;151957.94;4971746;28;20451;-88
2023/02/05 03:57:32;;;;;;;13.03;10.37;;;;;;;2.28;100.00;151952.81;4953637;28;20480;-88
2023/02/05 04:00:00;;;;;;;14.20;10.80;;;;;;;2.30;100.00;151957.94;4941995;28;20553;-88
2023/02/05 04:02:29;;;;;;;11.70;10.47;;;;;;;2.27;100.00;151950.28;4955378;28;20449;-88
2023/02/05 04:04:59;;;;;;;16.23;11.07;;;;;;;2.25;100.00;151945.09;4954601;28;21866;-88
2023/02/05 04:07:26;;;;;;;11.47;10.17;;;;;;;2.21;100.00;151934.84;4951752;28;20449;-88
2023/02/05 04:09:52;;;;;;;13.60;10.07;;;;;;;2.21;100.00;151933.53;4952471;28;20519;-88
2023/02/05 04:12:19;;;;;;;12.43;9.10;;;;;;;2.19;100.00;151929.72;4986882;28;20527;-88
2023/02/05 04:14:47;;;;;;;10.90;9.80;;;;;;;2.14;100.00;151916.84;4950949;28;20466;-88
2023/02/05 04:17:13;;;;;;;12.33;9.90;;;;;;;2.16;100.00;151921.97;4970129;28;20478;-87
2023/02/05 04:19:41;;;;;;;17.70;10.50;;;;;;;2.13;100.00;151914.25;4970348;28;20449;-88
2023/02/05 04:22:11;;;;;;;13.93;10.40;;;;;;;2.14;100.00;151915.56;4953647;28;20806;-88
2023/02/05 04:24:41;;;;;;;12.07;10.03;;;;;;;2.11;100.00;151909.13;4950082;28;20496;-88
2023/02/05 04:27:08;;;;;;;13.90;10.10;;;;;;;2.09;100.00;151903.94;4961530;28;20460;-88
2023/02/05 04:29:35;;;;;;;12.00;9.90;;;;;;;2.08;100.00;151901.41;4978549;28;20456;-88
2023/02/05 04:32:02;;;;;;;13.93;10.03;;;;;;;2.07;100.00;151897.53;4976467;28;20433;-88
2023/02/05 04:34:29;;;;;;;16.20;10.33;;;;;;;2.04;100.00;151891.09;4931133;28;20469;-88
2023/02/05 04:36:56;;;;;;;17.80;9.97;;;;;;;1.99;100.00;151876.97;4937055;28;20448;-88
2023/02/05 04:39:28;;;;;;;11.90;9.60;;;;;;;1.98;100.00;151875.72;4971225;28;20457;-88
2023/02/05 04:41:55;;;;;;;13.93;9.57;;;;;;;1.97;100.00;151873.13;4952931;28;20485;-88
2023/02/05 04:44:21;;;;;;;14.33;10.20;;;;;;;1.94;100.00;151865.41;4942229;28;20495;-88
2023/02/05 04:46:48;;;;;;;24.97;10.90;;;;;;;1.92;100.00;151860.28;4973266;28;20454;-88
2023/02/05 04:49:15;;;;;;;15.00;10.37;;;;;;;1.93;100.00;151862.88;4968242;28;21029;-88
2023/02/05 04:51:42;;;;;;;13.10;9.50;;;;;;;1.87;100.00;151847.41;4966063;28;20895;-88
2023/02/05 04:54:08;;;;;;;18.00;11.30;;;;;;;1.80;100.00;151829.44;4967012;28;20448;-88
2023/02/05 04:56:36;;;;;;;15.80;10.70;;;;;;;1.76;100.00;151819.13;4969779;28;20477;-88
2023/02/05 04:59:03;;;;;;;13.60;10.63;;;;;;;1.76;100.00;151819.13;4953416;28;20452;-88
2023/02/05 05:01:30;;;;;;;13.60;10.60;;;;;;;1.74;100.00;151814.00;4972360;28;20472;-88
2023/02/05 05:03:57;;;;;;;11.10;9.70;;;;;;;1.73;100.00;151811.41;4983967;28;21007;-88
2023/02/05 05:06:23;;;;;;;14.50;10.10;;;;;;;1.70;100.00;151803.69;4962897;28;20457;-89
2023/02/05 05:08:50;;;;;;;12.53;10.00;;;;;;;1.67;100.00;151797.28;4954685;28;20454;-88
2023/02/05 05:11:18;;;;;;;18.20;10.63;;;;;;;1.66;100.00;151794.75;4970652;28;20464;-89
2023/02/05 05:13:48;;;;;;;15.13;9.77;;;;;;;1.64;100.00;151788.31;4938840;28;20893;-89
2023/02/05 05:16:14;;;;;;;14.63;10.47;;;;;;;1.64;100.00;151789.56;4935451;28;20499;-89
2023/02/05 05:18:41;;;;;;;12.77;9.00;;;;;;;1.65;100.00;151790.84;4951580;28;20454;-89
2023/02/05 05:21:08;;;;;;;15.87;11.00;;;;;;;1.65;100.00;151790.84;4968903;28;20472;-89
2023/02/05 05:23:38;;;;;;;17.03;9.43;;;;;;;1.70;100.00;151803.69;4952372;28;20463;-88
2023/02/05 05:26:50;;;;;;;12.17;9.90;;;;;;;1.71;100.00;151806.28;4970217;28;20810;-89
2023/02/05 05:33:18;;;;;;;11.57;9.57;;;;;;;1.71;100.00;151807.59;4931194;29;20474;-89
2023/02/05 05:36:06;;;;;;;12.27;9.50;;;;;;;1.71;100.00;151806.28;4932796;29;20974;-89
2023/02/05 05:44:35;;;;;;;11.97;9.67;;;;;;;1.73;100.00;151812.72;4934869;29;20453;-88
2023/02/05 05:47:01;;;;;;;16.40;11.27;;;;;;;1.81;100.00;151832.00;4933606;29;20636;-89
2023/02/05 05:49:30;;;;;;;14.43;10.73;;;;;;;1.82;100.00;151834.56;4933362;29;20462;-89
2023/02/05 05:51:56;;;;;;;17.93;10.80;;;;;;;1.82;100.00;151835.88;4933716;29;20450;-89
2023/02/05 05:54:23;;;;;;;14.00;10.60;;;;;;;1.83;100.00;151838.41;4932918;29;20485;-89
2023/02/05 05:56:51;;;;;;;12.63;10.20;;;;;;;1.84;100.00;151839.72;4924125;29;20479;-88
2023/02/05 05:59:18;;;;;;;13.20;9.50;;;;;;;1.85;100.00;151843.53;4915885;29;20482;-89
2023/02/05 06:01:47;;;;;;;12.93;10.03;;;;;;;1.89;100.00;151851.25;4904720;29;20480;-89
2023/02/05 06:04:17;;;;;;;11.87;9.93;;;;;;;1.86;100.00;151844.84;4932696;29;20538;-89
2023/02/05 06:06:45;;;;;;;12.67;10.53;;;;;;;1.90;100.00;151853.84;4919266;28;20469;-88
2023/02/05 06:09:12;;;;;;;10.23;9.20;;;;;;;1.90;100.00;151853.84;4951590;28;20555;-88
2023/02/05 06:11:38;;;;;;;14.10;9.13;;;;;;;1.92;100.00;151858.97;4949664;28;20457;-88
2023/02/05 06:14:05;;;;;;;14.10;10.40;;;;;;;1.93;100.00;151861.56;4950717;29;20462;-88
2023/02/05 06:16:32;;;;;;;13.60;10.00;;;;;;;1.92;100.00;151858.97;4929211;29;20466;-88
2023/02/05 06:18:58;;;;;;;14.03;9.93;;;;;;;1.92;100.00;151858.97;4935431;28;20549;-88
2023/02/05 06:21:25;;;;;;;14.33;8.93;;;;;;;1.92;100.00;151860.28;4929954;29;20472;-88
2023/02/05 06:23:53;;;;;;;15.00;10.73;;;;;;;1.92;100.00;151858.97;4948236;29;20560;-88
2023/02/05 06:26:20;;;;;;;11.80;10.23;;;;;;;1.86;100.00;151844.84;4947738;28;20557;-88
2023/02/05 06:28:47;;;;;;;14.63;10.97;;;;;;;1.86;100.00;151844.84;4940327;29;20461;-89
2023/02/05 06:31:13;;;;;;;13.50;10.83;;;;;;;1.82;100.00;151834.56;4950019;29;20438;-88
2023/02/05 06:33:40;;;;;;;14.77;10.13;;;;;;;1.80;100.00;151829.44;4949080;28;20488;-88
2023/02/05 06:36:07;;;;;;;12.10;10.67;;;;;;;1.80;100.00;151830.69;4932713;28;20453;-88
2023/02/05 06:38:34;;;;;;;18.03;11.93;;;;;;;1.81;100.00;151832.00;4949376;29;20454;-89
2023/02/05 06:41:02;;;;;;;13.00;10.30;;;;;;;1.81;100.00;151833.28;4950457;28;20468;-88
2023/02/05 06:43:29;;;;;;;15.07;11.47;;;;;;;1.80;100.00;151829.44;4944671;28;20532;-88
2023/02/05 06:45:55;;;;;;;14.40;10.80;;;;;;;1.79;100.00;151826.84;4950070;28;20534;-88
2023/02/05 06:48:22;;;;;;;13.10;10.30;;;;;;;1.81;100.00;151833.28;4944903;28;20541;-88
2023/02/05 06:50:49;;;;;;;13.93;11.20;;;;;;;1.75;100.00;151816.56;4946460;28;20477;-88
2023/02/05 06:53:15;;;;;;;14.17;11.60;;;;;;;1.74;100.00;151815.31;4952636;28;20467;-88
2023/02/05 06:55:42;;;;;;;14.43;10.67;;;;;;;1.78;100.00;151824.25;4955912;28;20488;-88
2023/02/05 06:58:10;;;;;;;13.07;10.77;;;;;;;1.78;100.00;151825.56;4959394;28;20500;-88
2023/02/05 07:00:37;;;;;;;14.37;9.87;;;;;;;1.82;100.00;151834.56;4974918;28;20458;-78
2023/02/05 07:03:03;;;;;;;12.50;9.00;;;;;;;1.86;100.00;151844.84;4968933;28;20566;-77
2023/02/05 07:05:30;;;;;;;12.03;9.80;;;;;;;1.90;100.00;151855.16;4972076;28;20541;-77
2023/02/05 07:07:58;;;;;;;16.40;9.87;;;;;;;1.92;100.00;151858.97;4970063;28;20446;-77
2023/02/05 07:10:25;;;;;;;14.60;9.40;;;;;;;1.94;100.00;151865.41;4950340;28;20519;-78
2023/02/05 07:12:52;;;;;;;11.83;9.07;;;;;;;1.96;100.00;151869.28;4970449;28;20497;-77
2023/02/05 07:15:20;;;;;;;12.53;9.20;;;;;;;1.98;100.00;151875.72;4940961;28;20456;-77
2023/02/05 07:17:46;;;;;;;12.67;9.80;;;;;;;2.02;100.00;151885.97;4984100;28;20556;-77
2023/02/05 07:20:13;;;;;;;10.50;9.10;;;;;;;2.05;100.00;151892.41;4951997;28;20457;-76
2023/02/05 07:22:40;;;;;;;17.43;10.10;;;;;;;2.05;100.00;151893.69;4969210;28;20547;-76
2023/02/05 07:25:08;;;;;;;12.93;10.00;;;;;;;2.05;100.00;151893.69;4951555;28;20468;-76
2023/02/05 07:27:34;;;;;;;13.50;9.50;;;;;;;2.07;100.00;151897.53;4969745;28;20467;-76
2023/02/05 07:30:01;;;;;;;10.50;8.47;;;;;;;2.08;100.00;151900.13;4952881;28;20463;-77
2023/02/05 07:32:29;;;;;;;14.10;10.40;;;;;;;2.09;100.00;151902.72;4953464;28;20493;-77
2023/02/05 07:34:56;;;;;;;12.00;9.60;;;;;;;2.11;100.00;151909.13;4969241;28;20497;-76
2023/02/05 07:37:22;;;;;;;13.43;9.00;;;;;;;2.15;100.00;151918.09;4984989;28;21065;-76
2023/02/05 07:39:49;;;;;;;11.77;9.63;;;;;;;2.15;100.00;151918.09;4960600;28;20597;-76
2023/02/05 07:42:16;;;;;;;10.53;8.67;;;;;;;2.17;100.00;151923.28;4984433;28;20491;-76
2023/02/05 07:44:49;;;;;;;10.33;8.90;;;;;;;2.19;100.00;151928.41;4966341;28;20452;-76
2023/02/05 07:47:16;;;;;;;12.27;8.87;;;;;;;2.18;100.00;151925.81;4967177;28;20589;-76
2023/02/05 07:49:44;;;;;;;12.40;9.67;;;;;;;2.17;100.00;151924.53;4959664;28;20463;-77
2023/02/05 07:52:11;;;;;;;11.90;9.70;;;;;;;2.18;100.00;151925.81;4967371;28;20547;-76
2023/02/05 07:54:38;;;;;;;15.37;10.80;;;;;;;2.23;100.00;151938.66;4952980;28;20970;-76
2023/02/05 07:57:05;;;;;;;16.00;10.60;;;;;;;2.23;100.00;151939.97;4963523;28;20475;-77
2023/02/05 07:59:32;;;;;;;13.80;9.47;;;;;;;2.24;100.00;151942.56;4947250;28;20535;-76
2023/02/05 08:01:58;;;;;;;13.23;9.10;;;;;;;2.28;100.00;151952.81;4954410;28;20474;-77
2023/02/05 08:04:25;;;;;;;16.17;11.27;;;;;;;2.26;100.00;151947.69;4966313;28;20460;-76
2023/02/05 08:06:53;;;;;;;15.00;11.03;;;;;;;2.24;100.00;151942.56;4950737;28;20530;-78
2023/02/05 08:09:20;;;;;;;11.73;10.60;;;;;;;2.27;100.00;151948.97;4925687;28;20593;-78
2023/02/05 08:11:47;;;;;;;15.00;11.07;;;;;;;2.26;100.00;151947.69;4945054;28;20539;-76
2023/02/05 08:14:13;;;;;;;14.80;11.30;;;;;;;2.25;100.00;151943.84;4931225;28;20460;-77
2023/02/05 08:16:40;;;;;;;14.63;10.90;;;;;;;2.26;100.00;151946.41;4950147;28;20522;-76
2023/02/05 08:19:07;;;;;;;15.10;12.23;;;;;;;2.26;100.00;151947.69;4956177;28;20470;-77
2023/02/05 08:21:33;;;;;;;11.27;10.00;;;;;;;2.28;100.00;151952.81;4971978;28;20449;-77
2023/02/05 08:24:02;;;;;;;16.03;11.13;;;;;;;2.32;100.00;151963.13;4942244;28;20560;-76
2023/02/05 08:26:28;;;;;;;14.90;12.23;;;;;;;2.35;100.00;151970.84;4959715;28;21617;-76
2023/02/05 08:28:55;;;;;;;15.50;11.27;;;;;;;2.33;100.00;151965.66;4953126;28;20923;-76
2023/02/05 08:31:22;;;;;;;13.70;12.30;;;;;;;2.34;100.00;151968.25;4956416;28;20452;-76
2023/02/05 08:33:53;;;;;;;12.43;11.10;;;;;;;2.32;100.00;151963.13;4952891;28;20468;-76
2023/02/05 08:36:20;;;;;;;14.80;11.07;;;;;;;2.34;100.00;151968.25;4957783;28;20457;-76
2023/02/05 08:38:47;;;;;;;12.30;10.80;;;;;;;2.32;100.00;151963.13;4957289;28;20963;-76
2023/02/05 08:41:15;;;;;;;18.40;12.27;;;;;;;2.34;100.00;151968.25;4949524;28;20457;-76
2023/02/05 08:43:42;;;;;;;13.47;10.17;;;;;;;2.35;100.00;151970.84;4957806;28;20868;-76
2023/02/05 08:46:09;;;;;;;13.57;11.03;;;;;;;2.37;100.00;151976.00;4943275;28;20462;-78
2023/02/05 08:48:36;;;;;;;15.13;11.23;;;;;;;2.41;100.00;151986.25;4957513;28;20497;-78
2023/02/05 08:51:04;;;;;;;15.47;11.73;;;;;;;2.43;100.00;151991.44;4943407;28;20544;-78
2023/02/05 08:53:30;;;;;;;15.50;10.93;;;;;;;2.43;100.00;151990.13;4943415;28;20454;-78
2023/02/05 08:55:58;;;;;;;13.87;10.47;;;;;;;2.46;100.00;151997.84;4954344;28;21081;-78
2023/02/05 08:58:26;;;;;;;12.80;10.67;;;;;;;2.45;100.00;151996.56;4964475;28;20460;-78
2023/02/05 09:00:59;;;;;;;12.60;11.17;;;;;;;2.50;100.00;152006.84;4947303;28;20577;-76
2023/02/05 09:03:25;;;;;;;13.03;11.67;;;;;;;2.52;100.00;152011.97;4964536;28;20497;-77
2023/02/05 09:05:52;;;;;;;13.53;11.20;;;;;;;2.53;100.00;152014.56;4963745;28;20499;-77
2023/02/05 09:08:19;;;;;;;13.80;10.60;;;;;;;2.57;100.00;152026.13;4971193;28;20833;-77
2023/02/05 09:10:46;;;;;;;13.73;11.90;;;;;;;2.60;100.00;152032.53;4968824;28;20448;-77
2023/02/05 09:13:18;;;;;;;14.70;10.83;;;;;;;2.61;100.00;152035.13;4971086;28;20792;-77
2023/02/05 09:15:49;;;;;;;14.33;11.30;;;;;;;2.64;100.00;152042.84;4971868;28;20456;-77
2023/02/05 09:18:18;;;;;;;16.10;11.13;;;;;;;2.68;100.00;152053.13;4983112;23;20488;-89
2023/02/05 09:20:47;;;;;;;15.20;11.90;;;;;;;2.70;100.00;152058.31;4987853;28;20456;-88
2023/02/05 09:23:15;;;;;;;17.57;11.83;;;;;;;2.72;100.00;152063.44;4983306;28;20499;-88
2023/02/05 09:25:42;;;;;;;14.67;12.37;;;;;;;2.71;100.00;152060.84;4987571;28;20854;-87
2023/02/05 09:28:12;;;;;;;13.83;11.97;;;;;;;2.68;100.00;152053.13;4987310;28;20518;-87
2023/02/05 09:30:40;;;;;;;15.53;13.40;;;;;;;2.69;100.00;152057.00;4992421;28;20452;-88
2023/02/05 09:33:08;;;;;;;13.67;12.27;;;;;;;2.71;100.00;152060.84;4994318;28;20460;-88
2023/02/05 09:35:36;;;;;;;16.80;13.20;;;;;;;2.71;100.00;152062.16;4987337;28;20451;-89
2023/02/05 09:38:02;;;;;;;15.23;13.07;;;;;;;2.73;100.00;152067.28;4980560;28;20479;-88
2023/02/05 09:40:34;;;;;;;14.07;12.43;;;;;;;2.73;100.00;152067.28;4967340;28;20554;-88
2023/02/05 09:43:05;;;;;;;17.63;13.30;;;;;;;2.74;100.00;152068.56;4977033;28;21061;-89
2023/02/05 09:45:38;;;;;;;15.27;13.47;;;;;;;2.76;100.00;152075.00;4983768;28;20449;-90
2023/02/05 09:48:22;;;;;;;18.73;14.23;;;;;;;2.76;100.00;152073.72;4971539;28;20483;-89
2023/02/05 09:50:50;;;;;;;17.37;12.30;;;;;;;2.75;100.00;152071.16;4995239;28;20461;-89
2023/02/05 09:53:19;;;;;;;15.50;12.80;;;;;;;2.77;100.00;152076.28;5009604;28;20461;-89
2023/02/05 09:55:47;;;;;;;16.07;13.83;;;;;;;2.76;100.00;152073.72;4973892;28;20454;-90
2023/02/05 09:58:16;;;;;;;22.67;14.63;;;;;;;2.75;100.00;152071.16;5000944;28;20929;-89
2023/02/05 10:00:46;;;;;;;14.97;13.37;;;;;;;2.77;100.00;152077.59;4994539;28;20451;-89
2023/02/05 10:03:22;;;;;;;16.87;14.40;;;;;;;2.79;100.00;152081.44;4989200;28;20473;-87
2023/02/05 10:06:01;;;;;;;15.00;13.40;;;;;;;2.79;100.00;152082.72;4994313;28;20535;-89
2023/02/05 10:08:34;;;;;;;17.20;13.10;;;;;;;2.79;100.00;152081.44;4972773;28;20462;-89
2023/02/05 10:11:01;;;;;;;15.53;12.13;;;;;;;2.82;100.00;152089.16;4987912;28;20448;-90
2023/02/05 10:13:35;;;;;;;12.63;10.57;;;;;;;2.84;100.00;152094.28;4982128;28;20442;-89
2023/02/05 10:16:22;;;;;;;13.30;10.77;;;;;;;2.85;100.00;152096.88;4991316;28;20455;-90
2023/02/05 10:19:01;;;;;;;15.10;11.47;;;;;;;2.85;100.00;152096.88;4981724;28;20512;-89
2023/02/05 10:21:40;;;;;;;14.67;11.40;;;;;;;2.86;100.00;152099.47;4987792;28;20557;-89
2023/02/05 10:24:20;;;;;;;19.23;13.00;;;;;;;2.90;100.00;152109.75;4986164;28;20526;-89
2023/02/05 10:26:49;;;;;;;13.23;11.80;;;;;;;2.91;100.00;152113.56;4978646;28;20955;-89
2023/02/05 10:29:24;;;;;;;17.30;12.90;;;;;;;2.94;100.00;152120.00;4984592;28;20462;-89
2023/02/05 10:32:07;;;;;;;15.97;12.07;;;;;;;2.94;100.00;152120.00;5002062;28;20458;-88
2023/02/05 10:34:46;;;;;;;13.60;11.30;;;;;;;2.95;100.00;152122.59;4987999;28;20468;-88
2023/02/05 10:37:17;;;;;;;18.47;11.90;;;;;;;2.99;100.00;152132.91;4973425;28;20456;-88
2023/02/05 10:39:44;;;;;;;17.13;12.60;;;;;;;2.99;100.00;152132.91;4968768;28;20559;-88
2023/02/05 10:42:24;;;;;;;16.77;10.77;;;;;;;3.05;100.00;152149.63;4984623;28;20445;-88
2023/02/05 10:44:59;;;;;;;12.53;11.10;;;;;;;3.10;100.00;152161.19;4984925;28;20963;-88
2023/02/05 10:47:39;;;;;;;16.00;11.63;;;;;;;3.16;100.00;152176.66;4987098;28;20539;-88
2023/02/05 10:50:16;;;;;;;18.60;11.37;;;;;;;3.18;100.00;152181.78;4969689;28;20453;-88
2023/02/05 10:52:43;;;;;;;12.77;11.07;;;;;;;3.22;100.00;152192.09;4986930;28;20458;-88
2023/02/05 10:55:11;;;;;;;12.57;10.30;;;;;;;3.25;100.00;152198.53;4971383;28;21023;-88
2023/02/05 10:57:38;;;;;;;14.30;10.60;;;;;;;3.25;100.00;152198.53;4965628;28;20450;-88
2023/02/05 11:00:14;;;;;;;15.83;10.47;;;;;;;3.29;100.00;152210.09;4969473;28;20901;-88
2023/02/05 11:02:43;;;;;;;17.20;9.90;;;;;;;3.36;100.00;152226.84;4970936;28;20478;-88
2023/02/05 11:05:20;;;;;;;14.50;10.00;;;;;;;3.38;100.00;152232.00;4986072;28;20452;-88
2023/02/05 11:07:48;;;;;;;14.17;9.90;;;;;;;3.38;100.00;152233.28;4990933;28;20452;-88
2023/02/05 11:10:16;;;;;;;18.90;10.43;;;;;;;3.43;100.00;152246.16;4987275;28;20555;-88
2023/02/05 11:12:44;;;;;;;15.33;10.73;;;;;;;3.45;100.00;152250.00;4991800;28;20516;-88
2023/02/05 11:15:20;;;;;;;14.33;10.87;;;;;;;3.47;100.00;152256.44;4987337;28;20838;-88
2023/02/05 11:17:50;;;;;;;13.10;10.43;;;;;;;3.47;100.00;152256.44;4986893;28;20540;-87
2023/02/05 11:20:30;;;;;;;11.40;9.80;;;;;;;3.49;100.00;152261.59;5005016;28;20476;-88
2023/02/05 11:23:09;;;;;;;14.77;9.70;;;;;;;3.51;100.00;152266.75;5013054;28;20499;-88
2023/02/05 11:25:36;;;;;;;11.93;9.07;;;;;;;3.50;100.00;152264.16;4993159;28;20527;-88
2023/02/05 11:28:04;;;;;;;15.30;9.10;;;;;;;3.55;100.00;152277.03;4995136;28;20457;-88
2023/02/05 11:30:34;;;;;;;12.17;8.80;;;;;;;3.58;100.00;152283.47;4996256;28;20953;-88
2023/02/05 11:33:19;;;;;;;13.07;8.50;;;;;;;3.63;100.00;152297.63;4989996;28;20446;-87
2023/02/05 11:35:54;;;;;;;10.47;7.50;;;;;;;3.63;100.00;152297.63;4989079;28;20446;-88